Cooper Landing, Alaska
Current Conditions -  °F | °C
As of 11:11 PM on Saturday 20 Dec 2014 (Local Time) from PAWD Reporting Station
Light Snow Light Snow  
Wind Chill: 21°   Ceiling: 3100
Heat Index: 30°   Visibility: 3mi
Dew Point: 24°   Wind: 10mph
Humidity: 79%   Direction: 360°N
Pressure: 28.92"   Gusts: NA
Location:  60.47°N, 149.85°W
Report Text: PAWD 210811Z AUTO 36009KT 3SM -SN FEW025 OVC031 M01/M04 A2892 RMK AO2 P0000 T10111044 TSNO
Loading
Personal Weather Stations






























Interactive Weather Map New forecast layout! Learn more

10-Day Weather Forecast

Advertisements
Track Severe Weather on mobile